sensor_id;sensor_type;location;lat;lon;timestamp;pressure;altitude;pressure_sealevel;temperature;humidity
11525;BME280;5819;49.648;8.330;2023-07-31T00:02:15;100301.03;;;19.13;74.43
11525;BME280;5819;49.648;8.330;2023-07-31T00:04:43;100303.16;;;19.08;74.48
11525;BME280;5819;49.648;8.330;2023-07-31T00:07:11;100302.56;;;19.04;75.05
11525;BME280;5819;49.648;8.330;2023-07-31T00:09:39;100296.56;;;19.02;74.85
11525;BME280;5819;49.648;8.330;2023-07-31T00:12:09;100297.66;;;19.00;75.46
11525;BME280;5819;49.648;8.330;2023-07-31T00:14:36;100292.75;;;18.95;75.98
11525;BME280;5819;49.648;8.330;2023-07-31T00:17:05;100290.22;;;18.94;75.59
11525;BME280;5819;49.648;8.330;2023-07-31T00:19:33;100292.84;;;18.94;76.04
11525;BME280;5819;49.648;8.330;2023-07-31T00:22:02;100292.50;;;18.87;76.51
11525;BME280;5819;49.648;8.330;2023-07-31T00:24:30;100287.13;;;18.89;75.94
11525;BME280;5819;49.648;8.330;2023-07-31T00:26:58;100293.78;;;18.82;76.45
11525;BME280;5819;49.648;8.330;2023-07-31T00:29:27;100290.34;;;18.81;76.16
11525;BME280;5819;49.648;8.330;2023-07-31T00:31:56;100290.47;;;18.80;76.78
11525;BME280;5819;49.648;8.330;2023-07-31T00:34:24;100286.88;;;18.81;76.97
11525;BME280;5819;49.648;8.330;2023-07-31T00:36:52;100296.44;;;18.82;77.52
11525;BME280;5819;49.648;8.330;2023-07-31T00:39:19;100287.81;;;18.80;76.93
11525;BME280;5819;49.648;8.330;2023-07-31T00:41:47;100282.66;;;18.78;77.37
11525;BME280;5819;49.648;8.330;2023-07-31T00:44:16;100278.97;;;18.81;77.28
11525;BME280;5819;49.648;8.330;2023-07-31T00:46:45;100281.59;;;18.81;77.15
11525;BME280;5819;49.648;8.330;2023-07-31T00:49:13;100279.91;;;18.80;77.20
11525;BME280;5819;49.648;8.330;2023-07-31T00:51:41;100275.25;;;18.72;77.58
11525;BME280;5819;49.648;8.330;2023-07-31T00:54:10;100271.50;;;18.75;77.62
11525;BME280;5819;49.648;8.330;2023-07-31T00:56:40;100270.31;;;18.67;78.03
11525;BME280;5819;49.648;8.330;2023-07-31T00:59:11;100268.63;;;18.66;77.79
11525;BME280;5819;49.648;8.330;2023-07-31T01:01:40;100266.25;;;18.63;78.11
11525;BME280;5819;49.648;8.330;2023-07-31T01:04:09;100257.75;;;18.60;77.85
11525;BME280;5819;49.648;8.330;2023-07-31T01:06:42;100272.81;;;18.58;77.45
11525;BME280;5819;49.648;8.330;2023-07-31T01:09:18;100279.28;;;18.54;77.76
11525;BME280;5819;49.648;8.330;2023-07-31T01:11:52;100274.50;;;18.59;75.56
11525;BME280;5819;49.648;8.330;2023-07-31T01:14:20;100265.16;;;18.66;75.29
11525;BME280;5819;49.648;8.330;2023-07-31T01:16:48;100269.38;;;18.57;76.51
11525;BME280;5819;49.648;8.330;2023-07-31T01:19:21;100269.22;;;18.59;75.88
11525;BME280;5819;49.648;8.330;2023-07-31T01:22:16;100269.13;;;18.60;75.46
11525;BME280;5819;49.648;8.330;2023-07-31T01:24:55;100259.88;;;18.66;75.55
11525;BME280;5819;49.648;8.330;2023-07-31T01:27:30;100261.56;;;18.67;75.27
11525;BME280;5819;49.648;8.330;2023-07-31T01:30:06;100255.09;;;18.71;75.92
11525;BME280;5819;49.648;8.330;2023-07-31T01:32:40;100257.50;;;18.74;76.25
11525;BME280;5819;49.648;8.330;2023-07-31T01:35:08;100255.94;;;18.72;76.52
11525;BME280;5819;49.648;8.330;2023-07-31T01:37:36;100257.38;;;18.76;76.70
11525;BME280;5819;49.648;8.330;2023-07-31T01:40:06;100259.06;;;18.77;76.58
11525;BME280;5819;49.648;8.330;2023-07-31T01:42:35;100257.50;;;18.74;77.25
11525;BME280;5819;49.648;8.330;2023-07-31T01:45:04;100248.03;;;18.72;77.95
11525;BME280;5819;49.648;8.330;2023-07-31T01:47:32;100255.34;;;18.68;78.06
11525;BME280;5819;49.648;8.330;2023-07-31T01:50:00;100258.44;;;18.62;78.45
11525;BME280;5819;49.648;8.330;2023-07-31T01:52:28;100249.34;;;18.55;78.34
11525;BME280;5819;49.648;8.330;2023-07-31T01:54:56;100246.06;;;18.51;79.13
11525;BME280;5819;49.648;8.330;2023-07-31T01:57:24;100248.47;;;18.43;79.72
11525;BME280;5819;49.648;8.330;2023-07-31T01:59:53;100244.72;;;18.35;80.40
11525;BME280;5819;49.648;8.330;2023-07-31T02:02:22;100244.47;;;18.27;81.14
11525;BME280;5819;49.648;8.330;2023-07-31T02:04:51;100239.53;;;18.22;81.64
11525;BME280;5819;49.648;8.330;2023-07-31T02:07:19;100246.84;;;18.18;82.27
11525;BME280;5819;49.648;8.330;2023-07-31T02:09:47;100238.09;;;18.18;82.42
11525;BME280;5819;49.648;8.330;2023-07-31T02:12:15;100237.41;;;18.16;82.54
11525;BME280;5819;49.648;8.330;2023-07-31T02:14:43;100239.88;;;18.17;82.73
11525;BME280;5819;49.648;8.330;2023-07-31T02:17:13;100237.72;;;18.11;83.27
11525;BME280;5819;49.648;8.330;2023-07-31T02:19:41;100233.31;;;18.12;83.08
11525;BME280;5819;49.648;8.330;2023-07-31T02:22:09;100228.75;;;18.14;82.83
11525;BME280;5819;49.648;8.330;2023-07-31T02:24:36;100224.47;;;18.13;83.18
11525;BME280;5819;49.648;8.330;2023-07-31T02:27:05;100223.38;;;18.15;82.55
11525;BME280;5819;49.648;8.330;2023-07-31T02:29:33;100228.16;;;18.10;83.45
11525;BME280;5819;49.648;8.330;2023-07-31T02:32:00;100221.34;;;18.08;83.03
11525;BME280;5819;49.648;8.330;2023-07-31T02:34:30;100224.22;;;18.05;84.10
11525;BME280;5819;49.648;8.330;2023-07-31T02:36:57;100213.44;;;18.08;83.61
11525;BME280;5819;49.648;8.330;2023-07-31T02:39:25;100211.75;;;18.07;83.09
11525;BME280;5819;49.648;8.330;2023-07-31T02:41:53;100212.69;;;18.06;82.86
11525;BME280;5819;49.648;8.330;2023-07-31T02:44:22;100211.75;;;18.07;82.65
11525;BME280;5819;49.648;8.330;2023-07-31T02:46:50;100216.91;;;18.08;82.81
11525;BME280;5819;49.648;8.330;2023-07-31T02:49:18;100210.69;;;18.09;82.34
11525;BME280;5819;49.648;8.330;2023-07-31T02:51:47;100212.00;;;18.15;82.58
11525;BME280;5819;49.648;8.330;2023-07-31T02:54:15;100216.31;;;18.16;82.29
11525;BME280;5819;49.648;8.330;2023-07-31T02:56:43;100206.28;;;18.21;82.11
11525;BME280;5819;49.648;8.330;2023-07-31T02:59:11;100212.75;;;18.17;81.91
11525;BME280;5819;49.648;8.330;2023-07-31T03:01:39;100217.88;;;18.18;82.01
11525;BME280;5819;49.648;8.330;2023-07-31T03:04:07;100220.28;;;18.21;81.80
11525;BME280;5819;49.648;8.330;2023-07-31T03:06:35;100222.81;;;18.23;81.84
11525;BME280;5819;49.648;8.330;2023-07-31T03:09:05;100217.28;;;18.26;82.17
11525;BME280;5819;49.648;8.330;2023-07-31T03:11:33;100210.47;;;18.23;82.54
11525;BME280;5819;49.648;8.330;2023-07-31T03:14:01;100206.16;;;18.22;82.92
11525;BME280;5819;49.648;8.330;2023-07-31T03:16:28;100208.19;;;18.19;82.86
11525;BME280;5819;49.648;8.330;2023-07-31T03:18:56;100212.00;;;18.15;83.18
11525;BME280;5819;49.648;8.330;2023-07-31T03:21:24;100208.78;;;18.11;83.12
11525;BME280;5819;49.648;8.330;2023-07-31T03:23:52;100216.06;;;18.08;83.20
11525;BME280;5819;49.648;8.330;2023-07-31T03:26:21;100220.00;;;18.13;82.83
11525;BME280;5819;49.648;8.330;2023-07-31T03:28:49;100206.84;;;18.13;83.33
11525;BME280;5819;49.648;8.330;2023-07-31T03:31:17;100212.84;;;18.15;83.00
11525;BME280;5819;49.648;8.330;2023-07-31T03:33:45;100208.53;;;18.14;82.87
11525;BME280;5819;49.648;8.330;2023-07-31T03:36:13;100206.97;;;18.12;82.32
11525;BME280;5819;49.648;8.330;2023-07-31T03:38:41;100201.97;;;18.09;82.55
11525;BME280;5819;49.648;8.330;2023-07-31T03:41:09;100203.16;;;18.05;82.61
11525;BME280;5819;49.648;8.330;2023-07-31T03:43:39;100216.66;;;18.00;83.25
11525;BME280;5819;49.648;8.330;2023-07-31T03:46:07;100214.84;;;18.01;83.19
11525;BME280;5819;49.648;8.330;2023-07-31T03:48:35;100203.72;;;17.97;83.95
11525;BME280;5819;49.648;8.330;2023-07-31T03:51:03;100205.50;;;17.97;83.56
11525;BME280;5819;49.648;8.330;2023-07-31T03:53:31;100201.31;;;17.94;83.69
11525;BME280;5819;49.648;8.330;2023-07-31T03:55:59;100201.53;;;17.91;84.26
11525;BME280;5819;49.648;8.330;2023-07-31T03:58:26;100215.19;;;17.96;84.65
11525;BME280;5819;49.648;8.330;2023-07-31T04:00:56;100208.00;;;17.98;83.70
11525;BME280;5819;49.648;8.330;2023-07-31T04:03:24;100205.50;;;17.97;84.42
11525;BME280;5819;49.648;8.330;2023-07-31T04:05:54;100209.69;;;17.99;83.84
11525;BME280;5819;49.648;8.330;2023-07-31T04:08:21;100205.38;;;17.98;83.97
11525;BME280;5819;49.648;8.330;2023-07-31T04:10:49;100208.84;;;17.99;84.37
11525;BME280;5819;49.648;8.330;2023-07-31T04:13:18;100202.75;;;17.98;84.75
11525;BME280;5819;49.648;8.330;2023-07-31T04:15:48;100197.47;;;17.98;83.73
11525;BME280;5819;49.648;8.330;2023-07-31T04:18:18;100196.78;;;17.96;84.78
11525;BME280;5819;49.648;8.330;2023-07-31T04:20:45;100189.38;;;18.01;83.95
11525;BME280;5819;49.648;8.330;2023-07-31T04:23:13;100185.78;;;18.02;84.13
11525;BME280;5819;49.648;8.330;2023-07-31T04:25:41;100189.13;;;18.04;83.93
11525;BME280;5819;49.648;8.330;2023-07-31T04:28:09;100194.41;;;18.04;83.73
11525;BME280;5819;49.648;8.330;2023-07-31T04:30:38;100194.78;;;18.11;83.05
11525;BME280;5819;49.648;8.330;2023-07-31T04:33:06;100190.44;;;18.10;83.65
11525;BME280;5819;49.648;8.330;2023-07-31T04:35:35;100185.41;;;18.07;83.60
11525;BME280;5819;49.648;8.330;2023-07-31T04:38:03;100185.66;;;18.04;83.64
11525;BME280;5819;49.648;8.330;2023-07-31T04:40:31;100182.09;;;18.05;83.45
11525;BME280;5819;49.648;8.330;2023-07-31T04:42:59;100182.78;;;18.07;83.66
11525;BME280;5819;49.648;8.330;2023-07-31T04:45:27;100168.69;;;18.08;83.44
11525;BME280;5819;49.648;8.330;2023-07-31T04:47:55;100177.28;;;18.10;83.03
11525;BME280;5819;49.648;8.330;2023-07-31T04:50:23;100184.38;;;18.09;82.63
11525;BME280;5819;49.648;8.330;2023-07-31T04:52:52;100175.25;;;18.13;82.47
11525;BME280;5819;49.648;8.330;2023-07-31T04:55:20;100175.88;;;18.17;82.76
11525;BME280;5819;49.648;8.330;2023-07-31T04:57:48;100179.13;;;18.20;82.42
11525;BME280;5819;49.648;8.330;2023-07-31T05:00:17;100179.72;;;18.24;82.22
11525;BME280;5819;49.648;8.330;2023-07-31T05:02:45;100177.69;;;18.28;81.86
11525;BME280;5819;49.648;8.330;2023-07-31T05:05:13;100169.69;;;18.29;82.24
11525;BME280;5819;49.648;8.330;2023-07-31T05:07:41;100167.41;;;18.24;81.83
11525;BME280;5819;49.648;8.330;2023-07-31T05:10:10;100167.16;;;18.28;81.71
11525;BME280;5819;49.648;8.330;2023-07-31T05:12:38;100173.25;;;18.28;81.65
11525;BME280;5819;49.648;8.330;2023-07-31T05:15:06;100169.88;;;18.26;81.61
11525;BME280;5819;49.648;8.330;2023-07-31T05:17:35;100173.25;;;18.28;81.42
11525;BME280;5819;49.648;8.330;2023-07-31T05:20:03;100170.63;;;18.28;81.20
11525;BME280;5819;49.648;8.330;2023-07-31T05:22:31;100173.84;;;18.32;80.98
11525;BME280;5819;49.648;8.330;2023-07-31T05:24:59;100175.66;;;18.31;81.22
11525;BME280;5819;49.648;8.330;2023-07-31T05:27:28;100172.16;;;18.31;81.45
11525;BME280;5819;49.648;8.330;2023-07-31T05:29:56;100169.69;;;18.29;81.70
11525;BME280;5819;49.648;8.330;2023-07-31T05:32:25;100164.88;;;18.34;81.96
11525;BME280;5819;49.648;8.330;2023-07-31T05:34:52;100167.03;;;18.40;81.22
11525;BME280;5819;49.648;8.330;2023-07-31T05:37:21;100166.91;;;18.42;81.36
11525;BME280;5819;49.648;8.330;2023-07-31T05:39:49;100167.81;;;18.53;81.60
11525;BME280;5819;49.648;8.330;2023-07-31T05:42:18;100153.66;;;18.65;81.43
11525;BME280;5819;49.648;8.330;2023-07-31T05:44:47;100155.91;;;18.81;81.20
11525;BME280;5819;49.648;8.330;2023-07-31T05:47:16;100159.00;;;18.86;80.58
11525;BME280;5819;49.648;8.330;2023-07-31T05:49:44;100156.59;;;18.94;80.20
11525;BME280;5819;49.648;8.330;2023-07-31T05:52:11;100148.81;;;19.04;79.25
11525;BME280;5819;49.648;8.330;2023-07-31T05:54:39;100136.47;;;19.04;78.84
11525;BME280;5819;49.648;8.330;2023-07-31T05:57:08;100140.16;;;19.13;79.34
11525;BME280;5819;49.648;8.330;2023-07-31T05:59:35;100132.78;;;19.28;78.10
11525;BME280;5819;49.648;8.330;2023-07-31T06:02:05;100134.72;;;19.26;78.44
11525;BME280;5819;49.648;8.330;2023-07-31T06:04:33;100124.50;;;19.32;78.05
11525;BME280;5819;49.648;8.330;2023-07-31T06:07:02;100118.00;;;19.36;77.58
11525;BME280;5819;49.648;8.330;2023-07-31T06:09:30;100123.38;;;19.46;77.75
11525;BME280;5819;49.648;8.330;2023-07-31T06:11:57;100132.47;;;19.42;78.09
11525;BME280;5819;49.648;8.330;2023-07-31T06:14:25;100126.63;;;19.38;78.54
11525;BME280;5819;49.648;8.330;2023-07-31T06:16:53;100115.94;;;19.40;78.97
11525;BME280;5819;49.648;8.330;2023-07-31T06:19:23;100132.84;;;19.48;78.93
11525;BME280;5819;49.648;8.330;2023-07-31T06:21:51;100120.19;;;19.63;78.97
11525;BME280;5819;49.648;8.330;2023-07-31T06:24:18;100120.72;;;19.78;77.40
11525;BME280;5819;49.648;8.330;2023-07-31T06:26:47;100110.38;;;19.75;77.87
11525;BME280;5819;49.648;8.330;2023-07-31T06:29:15;100113.47;;;19.80;76.00
11525;BME280;5819;49.648;8.330;2023-07-31T06:31:43;100112.59;;;19.70;76.10
11525;BME280;5819;49.648;8.330;2023-07-31T06:34:11;100116.47;;;19.66;77.34
11525;BME280;5819;49.648;8.330;2023-07-31T06:36:41;100114.78;;;19.65;76.89
11525;BME280;5819;49.648;8.330;2023-07-31T06:39:08;100125.59;;;19.61;77.01
11525;BME280;5819;49.648;8.330;2023-07-31T06:41:38;100130.16;;;19.59;78.07
11525;BME280;5819;49.648;8.330;2023-07-31T06:44:09;100131.69;;;19.62;77.53
11525;BME280;5819;49.648;8.330;2023-07-31T06:46:38;100123.16;;;19.70;77.97
11525;BME280;5819;49.648;8.330;2023-07-31T06:49:06;100121.41;;;19.80;77.71
11525;BME280;5819;49.648;8.330;2023-07-31T06:51:34;100116.63;;;19.94;76.75
11525;BME280;5819;49.648;8.330;2023-07-31T06:54:04;100126.78;;;19.99;76.28
11525;BME280;5819;49.648;8.330;2023-07-31T06:56:32;100125.47;;;20.14;76.33
11525;BME280;5819;49.648;8.330;2023-07-31T06:59:00;100119.56;;;20.22;74.27
11525;BME280;5819;49.648;8.330;2023-07-31T07:01:28;100120.91;;;20.16;74.80
11525;BME280;5819;49.648;8.330;2023-07-31T07:03:56;100122.16;;;20.12;75.45
11525;BME280;5819;49.648;8.330;2023-07-31T07:06:24;100124.78;;;20.12;74.55
11525;BME280;5819;49.648;8.330;2023-07-31T07:08:52;100123.06;;;20.01;75.38
11525;BME280;5819;49.648;8.330;2023-07-31T07:11:23;100123.78;;;20.03;75.28
11525;BME280;5819;49.648;8.330;2023-07-31T07:13:53;100129.22;;;20.12;74.99
11525;BME280;5819;49.648;8.330;2023-07-31T07:16:23;100123.28;;;20.19;75.84
11525;BME280;5819;49.648;8.330;2023-07-31T07:18:52;100111.31;;;20.36;74.90
11525;BME280;5819;49.648;8.330;2023-07-31T07:21:31;100110.53;;;20.54;75.22
11525;BME280;5819;49.648;8.330;2023-07-31T07:24:00;100105.41;;;20.53;75.15
11525;BME280;5819;49.648;8.330;2023-07-31T07:26:32;100100.97;;;20.63;73.54
11525;BME280;5819;49.648;8.330;2023-07-31T07:29:00;100106.00;;;20.66;74.26
11525;BME280;5819;49.648;8.330;2023-07-31T07:31:28;100098.06;;;20.76;73.70
11525;BME280;5819;49.648;8.330;2023-07-31T07:33:57;100097.53;;;20.82;73.46
11525;BME280;5819;49.648;8.330;2023-07-31T07:36:24;100097.00;;;21.07;72.51
11525;BME280;5819;49.648;8.330;2023-07-31T07:38:52;100093.97;;;21.40;72.89
11525;BME280;5819;49.648;8.330;2023-07-31T07:41:20;100085.59;;;21.55;71.53
11525;BME280;5819;49.648;8.330;2023-07-31T07:43:49;100081.00;;;21.47;70.16
11525;BME280;5819;49.648;8.330;2023-07-31T07:46:18;100077.69;;;21.45;71.02
11525;BME280;5819;49.648;8.330;2023-07-31T07:48:46;100073.63;;;21.51;70.41
11525;BME280;5819;49.648;8.330;2023-07-31T07:51:14;100082.84;;;21.37;69.86
11525;BME280;5819;49.648;8.330;2023-07-31T07:53:42;100067.09;;;21.35;71.15
11525;BME280;5819;49.648;8.330;2023-07-31T07:56:09;100068.34;;;21.31;71.15
11525;BME280;5819;49.648;8.330;2023-07-31T07:58:37;100075.31;;;21.42;71.54
11525;BME280;5819;49.648;8.330;2023-07-31T08:01:07;100068.34;;;21.31;71.57
11525;BME280;5819;49.648;8.330;2023-07-31T08:03:35;100067.94;;;21.36;72.61
11525;BME280;5819;49.648;8.330;2023-07-31T08:06:03;100066.63;;;21.59;72.54
11525;BME280;5819;49.648;8.330;2023-07-31T08:08:31;100060.63;;;21.76;71.93
11525;BME280;5819;49.648;8.330;2023-07-31T08:10:59;100050.00;;;21.96;70.29
11525;BME280;5819;49.648;8.330;2023-07-31T08:13:27;100046.81;;;21.92;69.75
11525;BME280;5819;49.648;8.330;2023-07-31T08:15:55;100037.13;;;22.10;70.10
11525;BME280;5819;49.648;8.330;2023-07-31T08:18:24;100026.31;;;22.21;69.59
11525;BME280;5819;49.648;8.330;2023-07-31T08:20:52;100029.06;;;22.02;68.56
11525;BME280;5819;49.648;8.330;2023-07-31T08:23:20;100019.16;;;22.04;68.33
11525;BME280;5819;49.648;8.330;2023-07-31T08:25:48;100026.63;;;22.18;69.24
11525;BME280;5819;49.648;8.330;2023-07-31T08:28:17;100021.44;;;22.44;69.01
11525;BME280;5819;49.648;8.330;2023-07-31T08:30:45;100005.19;;;22.57;66.27
11525;BME280;5819;49.648;8.330;2023-07-31T08:33:14;100003.59;;;22.46;64.37
11525;BME280;5819;49.648;8.330;2023-07-31T08:35:43;100001.44;;;22.77;64.76
11525;BME280;5819;49.648;8.330;2023-07-31T08:38:12;99993.03;;;22.81;64.02
11525;BME280;5819;49.648;8.330;2023-07-31T08:40:39;99994.91;;;23.07;63.79
11525;BME280;5819;49.648;8.330;2023-07-31T08:43:08;99995.56;;;23.26;63.52
11525;BME280;5819;49.648;8.330;2023-07-31T08:45:37;99996.75;;;23.06;63.23
11525;BME280;5819;49.648;8.330;2023-07-31T08:48:05;99987.56;;;22.83;62.32
11525;BME280;5819;49.648;8.330;2023-07-31T08:50:33;99994.41;;;22.85;62.63
11525;BME280;5819;49.648;8.330;2023-07-31T08:53:03;99973.06;;;23.13;61.92
11525;BME280;5819;49.648;8.330;2023-07-31T08:55:32;99980.03;;;23.14;62.63
11525;BME280;5819;49.648;8.330;2023-07-31T08:58:03;99981.22;;;22.94;61.74
11525;BME280;5819;49.648;8.330;2023-07-31T09:00:32;99992.00;;;22.65;62.72
11525;BME280;5819;49.648;8.330;2023-07-31T09:03:06;99984.69;;;22.59;63.15
11525;BME280;5819;49.648;8.330;2023-07-31T09:05:36;99984.31;;;22.89;62.89
11525;BME280;5819;49.648;8.330;2023-07-31T09:08:09;99994.84;;;22.99;62.87
11525;BME280;5819;49.648;8.330;2023-07-31T09:10:40;99980.66;;;23.08;62.71
11525;BME280;5819;49.648;8.330;2023-07-31T09:13:09;99972.75;;;23.16;63.61
11525;BME280;5819;49.648;8.330;2023-07-31T09:15:39;99971.91;;;23.15;64.13
11525;BME280;5819;49.648;8.330;2023-07-31T09:18:07;99969.69;;;23.28;63.22
11525;BME280;5819;49.648;8.330;2023-07-31T09:20:35;99962.16;;;23.42;63.14
11525;BME280;5819;49.648;8.330;2023-07-31T09:23:06;99977.84;;;23.35;62.95
11525;BME280;5819;49.648;8.330;2023-07-31T09:25:37;99980.38;;;22.93;62.70
11525;BME280;5819;49.648;8.330;2023-07-31T09:28:07;99993.91;;;23.08;63.05
11525;BME280;5819;49.648;8.330;2023-07-31T09:30:46;99988.56;;;22.82;63.46
11525;BME280;5819;49.648;8.330;2023-07-31T09:33:17;99987.41;;;22.84;64.09
11525;BME280;5819;49.648;8.330;2023-07-31T09:35:45;99975.91;;;23.19;62.45
11525;BME280;5819;49.648;8.330;2023-07-31T09:38:15;99974.88;;;23.12;63.65
11525;BME280;5819;49.648;8.330;2023-07-31T09:40:46;99958.13;;;23.12;62.27
11525;BME280;5819;49.648;8.330;2023-07-31T09:43:18;99959.47;;;23.16;62.67
11525;BME280;5819;49.648;8.330;2023-07-31T09:45:46;99964.19;;;23.04;62.56
11525;BME280;5819;49.648;8.330;2023-07-31T09:48:16;99961.56;;;23.04;62.94
11525;BME280;5819;49.648;8.330;2023-07-31T09:50:45;99949.91;;;22.79;61.67
11525;BME280;5819;49.648;8.330;2023-07-31T09:53:14;99944.06;;;23.19;61.45
11525;BME280;5819;49.648;8.330;2023-07-31T09:55:44;99928.00;;;23.21;60.13
11525;BME280;5819;49.648;8.330;2023-07-31T09:58:12;99940.13;;;22.98;61.36
11525;BME280;5819;49.648;8.330;2023-07-31T10:00:41;99941.84;;;23.07;60.69
11525;BME280;5819;49.648;8.330;2023-07-31T10:03:10;99941.53;;;23.10;62.04
11525;BME280;5819;49.648;8.330;2023-07-31T10:05:42;99933.28;;;22.95;60.31
11525;BME280;5819;49.648;8.330;2023-07-31T10:08:13;99919.19;;;23.20;60.04
11525;BME280;5819;49.648;8.330;2023-07-31T10:10:45;99918.63;;;23.09;60.78
11525;BME280;5819;49.648;8.330;2023-07-31T10:13:14;99919.00;;;23.14;61.51
11525;BME280;5819;49.648;8.330;2023-07-31T10:15:42;99900.66;;;23.28;60.29
11525;BME280;5819;49.648;8.330;2023-07-31T10:18:11;99901.50;;;23.29;60.37
11525;BME280;5819;49.648;8.330;2023-07-31T10:20:40;99901.25;;;23.14;60.25
11525;BME280;5819;49.648;8.330;2023-07-31T10:23:09;99899.00;;;23.27;59.73
11525;BME280;5819;49.648;8.330;2023-07-31T10:25:38;99893.97;;;23.16;59.54
11525;BME280;5819;49.648;8.330;2023-07-31T10:28:08;99919.97;;;23.13;61.01
11525;BME280;5819;49.648;8.330;2023-07-31T10:30:37;99901.16;;;23.50;58.91
11525;BME280;5819;49.648;8.330;2023-07-31T10:33:06;99900.38;;;23.57;58.62
11525;BME280;5819;49.648;8.330;2023-07-31T10:35:35;99914.44;;;23.50;58.85
11525;BME280;5819;49.648;8.330;2023-07-31T10:38:10;99907.09;;;23.44;59.35
11525;BME280;5819;49.648;8.330;2023-07-31T10:40:38;99923.38;;;23.49;59.66
11525;BME280;5819;49.648;8.330;2023-07-31T10:43:08;99909.56;;;23.71;58.60
11525;BME280;5819;49.648;8.330;2023-07-31T10:45:39;99898.59;;;24.16;58.44
11525;BME280;5819;49.648;8.330;2023-07-31T10:48:13;99906.50;;;24.00;58.84
11525;BME280;5819;49.648;8.330;2023-07-31T10:50:47;99908.59;;;23.80;58.15
11525;BME280;5819;49.648;8.330;2023-07-31T10:53:23;99911.09;;;23.48;59.31
11525;BME280;5819;49.648;8.330;2023-07-31T10:55:51;99902.84;;;23.07;59.96
11525;BME280;5819;49.648;8.330;2023-07-31T10:58:21;99909.66;;;22.84;60.64
11525;BME280;5819;49.648;8.330;2023-07-31T11:00:51;99903.13;;;22.61;61.47
11525;BME280;5819;49.648;8.330;2023-07-31T11:03:25;99913.22;;;22.57;62.53
11525;BME280;5819;49.648;8.330;2023-07-31T11:06:00;99902.47;;;22.59;62.70
11525;BME280;5819;49.648;8.330;2023-07-31T11:08:31;99910.03;;;22.54;62.88
11525;BME280;5819;49.648;8.330;2023-07-31T11:11:07;99928.66;;;22.44;63.03
11525;BME280;5819;49.648;8.330;2023-07-31T11:13:42;99922.00;;;22.40;63.43
11525;BME280;5819;49.648;8.330;2023-07-31T11:16:11;99901.50;;;22.77;62.61
11525;BME280;5819;49.648;8.330;2023-07-31T11:18:40;99911.66;;;22.47;64.75
11525;BME280;5819;49.648;8.330;2023-07-31T11:21:12;99910.88;;;22.54;65.85
11525;BME280;5819;49.648;8.330;2023-07-31T11:23:40;99910.03;;;22.71;64.67
11525;BME280;5819;49.648;8.330;2023-07-31T11:26:08;99909.97;;;22.81;62.44
11525;BME280;5819;49.648;8.330;2023-07-31T11:28:37;99897.16;;;22.94;62.08
11525;BME280;5819;49.648;8.330;2023-07-31T11:31:09;99900.78;;;22.93;61.75
11525;BME280;5819;49.648;8.330;2023-07-31T11:33:37;99889.28;;;22.84;61.96
11525;BME280;5819;49.648;8.330;2023-07-31T11:36:05;99893.16;;;22.72;63.41
11525;BME280;5819;49.648;8.330;2023-07-31T11:38:34;99881.16;;;23.12;62.19
11525;BME280;5819;49.648;8.330;2023-07-31T11:41:04;99880.03;;;23.14;61.42
11525;BME280;5819;49.648;8.330;2023-07-31T11:43:32;99873.06;;;23.13;62.51
11525;BME280;5819;49.648;8.330;2023-07-31T11:46:00;99860.13;;;23.44;60.71
11525;BME280;5819;49.648;8.330;2023-07-31T11:48:32;99861.00;;;23.53;61.04
11525;BME280;5819;49.648;8.330;2023-07-31T11:51:03;99849.63;;;23.76;62.04
11525;BME280;5819;49.648;8.330;2023-07-31T11:53:39;99845.22;;;24.09;61.00
11525;BME280;5819;49.648;8.330;2023-07-31T11:56:09;99847.56;;;24.12;60.96
11525;BME280;5819;49.648;8.330;2023-07-31T11:58:39;99839.97;;;24.26;59.94
11525;BME280;5819;49.648;8.330;2023-07-31T12:01:08;99841.63;;;24.35;59.27
11525;BME280;5819;49.648;8.330;2023-07-31T12:03:38;99835.66;;;24.49;58.11
11525;BME280;5819;49.648;8.330;2023-07-31T12:06:07;99842.28;;;24.45;59.21
11525;BME280;5819;49.648;8.330;2023-07-31T12:08:36;99840.13;;;24.48;58.63
11525;BME280;5819;49.648;8.330;2023-07-31T12:11:06;99834.31;;;24.20;58.84
11525;BME280;5819;49.648;8.330;2023-07-31T12:13:34;99838.94;;;24.10;59.92
11525;BME280;5819;49.648;8.330;2023-07-31T12:16:03;99830.94;;;24.02;60.09
11525;BME280;5819;49.648;8.330;2023-07-31T12:18:34;99840.41;;;24.05;59.78
11525;BME280;5819;49.648;8.330;2023-07-31T12:21:04;99831.00;;;24.18;58.83
11525;BME280;5819;49.648;8.330;2023-07-31T12:23:34;99832.81;;;24.26;60.38
11525;BME280;5819;49.648;8.330;2023-07-31T12:26:03;99833.91;;;23.83;59.16
11525;BME280;5819;49.648;8.330;2023-07-31T12:28:35;99838.44;;;23.57;59.25
11525;BME280;5819;49.648;8.330;2023-07-31T12:31:05;99826.97;;;23.48;59.82
11525;BME280;5819;49.648;8.330;2023-07-31T12:33:34;99835.59;;;23.50;60.45
11525;BME280;5819;49.648;8.330;2023-07-31T12:36:07;99838.41;;;23.49;59.72
11525;BME280;5819;49.648;8.330;2023-07-31T12:38:35;99833.78;;;23.25;60.44
11525;BME280;5819;49.648;8.330;2023-07-31T12:41:03;99821.50;;;23.50;59.56
11525;BME280;5819;49.648;8.330;2023-07-31T12:43:33;99816.91;;;23.68;60.35
11525;BME280;5819;49.648;8.330;2023-07-31T12:46:00;99803.69;;;24.08;59.30
11525;BME280;5819;49.648;8.330;2023-07-31T12:48:28;99792.44;;;24.31;57.33
11525;BME280;5819;49.648;8.330;2023-07-31T12:50:56;99789.78;;;24.47;58.36
11525;BME280;5819;49.648;8.330;2023-07-31T12:53:26;99796.09;;;24.54;57.70
11525;BME280;5819;49.648;8.330;2023-07-31T12:55:54;99795.41;;;24.52;58.23
11525;BME280;5819;49.648;8.330;2023-07-31T12:58:23;99781.13;;;24.20;58.66
11525;BME280;5819;49.648;8.330;2023-07-31T13:00:51;99796.44;;;24.27;59.50
11525;BME280;5819;49.648;8.330;2023-07-31T13:03:19;99777.00;;;24.34;58.34
11525;BME280;5819;49.648;8.330;2023-07-31T13:05:47;99770.44;;;24.85;58.67
11525;BME280;5819;49.648;8.330;2023-07-31T13:08:15;99777.91;;;24.98;58.53
11525;BME280;5819;49.648;8.330;2023-07-31T13:10:45;99764.13;;;24.78;58.55
11525;BME280;5819;49.648;8.330;2023-07-31T13:13:14;99768.31;;;24.56;58.89
11525;BME280;5819;49.648;8.330;2023-07-31T13:15:44;99785.81;;;24.43;59.46